sensor_id;sensor_type;location;lat;lon;timestamp;pressure;altitude;pressure_sealevel;temperature;humidity
34197;BME280;36594;45.192;5.722;2023-01-24T00:01:48;100041.70;;;23.06;31.34
34197;BME280;36594;45.192;5.722;2023-01-24T00:04:36;100048.17;;;23.02;31.37
34197;BME280;36594;45.192;5.722;2023-01-24T00:07:24;100042.28;;;22.99;31.40
34197;BME280;36594;45.192;5.722;2023-01-24T00:10:13;100046.02;;;22.95;31.41
34197;BME280;36594;45.192;5.722;2023-01-24T00:13:01;100027.60;;;22.93;31.44
34197;BME280;36594;45.192;5.722;2023-01-24T00:15:50;100035.21;;;22.91;31.44
34197;BME280;36594;45.192;5.722;2023-01-24T00:18:39;100040.08;;;22.89;31.47
34197;BME280;36594;45.192;5.722;2023-01-24T00:21:27;100040.52;;;22.86;31.48
34197;BME280;36594;45.192;5.722;2023-01-24T00:24:16;100043.25;;;22.86;31.50
34197;BME280;36594;45.192;5.722;2023-01-24T00:27:04;100041.71;;;22.81;31.50
34197;BME280;36594;45.192;5.722;2023-01-24T00:29:53;100029.06;;;22.80;31.54
34197;BME280;36594;45.192;5.722;2023-01-24T00:32:41;100038.36;;;22.79;31.55
34197;BME280;36594;45.192;5.722;2023-01-24T00:35:30;100030.58;;;22.76;31.57
34197;BME280;36594;45.192;5.722;2023-01-24T00:38:19;100033.84;;;22.76;31.57
34197;BME280;36594;45.192;5.722;2023-01-24T00:41:09;100041.45;;;22.74;31.61
34197;BME280;36594;45.192;5.722;2023-01-24T00:43:58;100046.02;;;22.71;31.63
34197;BME280;36594;45.192;5.722;2023-01-24T00:46:46;100057.94;;;22.67;31.67
34197;BME280;36594;45.192;5.722;2023-01-24T00:49:35;100045.38;;;22.68;31.65
34197;BME280;36594;45.192;5.722;2023-01-24T00:52:24;100042.88;;;22.67;31.63
34197;BME280;36594;45.192;5.722;2023-01-24T00:55:12;100049.19;;;22.67;31.67
34197;BME280;36594;45.192;5.722;2023-01-24T00:58:00;100043.63;;;22.65;31.65
34197;BME280;36594;45.192;5.722;2023-01-24T01:00:48;100054.34;;;22.66;31.65
34197;BME280;36594;45.192;5.722;2023-01-24T01:03:37;100055.34;;;22.63;31.68
34197;BME280;36594;45.192;5.722;2023-01-24T01:06:25;100041.33;;;22.62;31.66
34197;BME280;36594;45.192;5.722;2023-01-24T01:09:14;100049.77;;;22.60;31.68
34197;BME280;36594;45.192;5.722;2023-01-24T01:12:03;100048.28;;;22.58;31.70
34197;BME280;36594;45.192;5.722;2023-01-24T01:20:26;100063.34;;;22.58;31.67
34197;BME280;36594;45.192;5.722;2023-01-24T01:23:14;100062.72;;;22.56;31.71
34197;BME280;36594;45.192;5.722;2023-01-24T01:26:05;100069.86;;;22.57;31.70
34197;BME280;36594;45.192;5.722;2023-01-24T01:28:53;100074.43;;;22.54;31.72
34197;BME280;36594;45.192;5.722;2023-01-24T01:31:42;100066.97;;;22.52;31.70
34197;BME280;36594;45.192;5.722;2023-01-24T01:34:30;100081.18;;;22.51;31.75
34197;BME280;36594;45.192;5.722;2023-01-24T01:37:19;100089.39;;;22.51;31.76
34197;BME280;36594;45.192;5.722;2023-01-24T01:40:09;100083.08;;;22.51;31.74
34197;BME280;36594;45.192;5.722;2023-01-24T01:42:57;100083.50;;;22.48;31.73
34197;BME280;36594;45.192;5.722;2023-01-24T01:45:54;100089.91;;;22.51;31.75
34197;BME280;36594;45.192;5.722;2023-01-24T01:48:45;100091.28;;;22.51;31.73
34197;BME280;36594;45.192;5.722;2023-01-24T01:51:46;100091.10;;;22.46;31.71
34197;BME280;36594;45.192;5.722;2023-01-24T01:54:37;100091.00;;;22.43;31.84
34197;BME280;36594;45.192;5.722;2023-01-24T01:57:29;100090.72;;;22.42;31.88
34197;BME280;36594;45.192;5.722;2023-01-24T02:00:25;100085.86;;;22.44;31.82
34197;BME280;36594;45.192;5.722;2023-01-24T02:03:11;100096.71;;;22.42;31.84
34197;BME280;36594;45.192;5.722;2023-01-24T02:06:46;100101.66;;;22.42;31.87
34197;BME280;36594;45.192;5.722;2023-01-24T02:09:44;100099.22;;;22.43;31.84
34197;BME280;36594;45.192;5.722;2023-01-24T02:12:44;100106.20;;;22.39;31.79
34197;BME280;36594;45.192;5.722;2023-01-24T02:15:27;100105.35;;;22.39;31.86
34197;BME280;36594;45.192;5.722;2023-01-24T02:18:35;100104.83;;;22.39;31.81
34197;BME280;36594;45.192;5.722;2023-01-24T02:21:24;100110.20;;;22.37;31.88
34197;BME280;36594;45.192;5.722;2023-01-24T02:24:19;100122.00;;;22.37;31.83
34197;BME280;36594;45.192;5.722;2023-01-24T02:27:07;100125.69;;;22.40;31.81
34197;BME280;36594;45.192;5.722;2023-01-24T02:29:56;100121.34;;;22.42;31.77
34197;BME280;36594;45.192;5.722;2023-01-24T02:32:46;100124.09;;;22.42;31.77
34197;BME280;36594;45.192;5.722;2023-01-24T02:35:34;100110.40;;;22.42;31.77
34197;BME280;36594;45.192;5.722;2023-01-24T02:38:25;100130.93;;;22.42;31.69
34197;BME280;36594;45.192;5.722;2023-01-24T02:41:14;100130.41;;;22.42;31.71
34197;BME280;36594;45.192;5.722;2023-01-24T02:44:07;100128.72;;;22.41;31.71
34197;BME280;36594;45.192;5.722;2023-01-24T02:46:55;100131.68;;;22.40;31.71
34197;BME280;36594;45.192;5.722;2023-01-24T02:49:44;100134.71;;;22.41;31.71
34197;BME280;36594;45.192;5.722;2023-01-24T02:52:33;100144.84;;;22.40;31.70
34197;BME280;36594;45.192;5.722;2023-01-24T02:55:39;100129.79;;;22.40;31.71
34197;BME280;36594;45.192;5.722;2023-01-24T02:58:47;100135.89;;;22.36;31.74
34197;BME280;36594;45.192;5.722;2023-01-24T03:01:36;100135.27;;;22.34;31.81
34197;BME280;36594;45.192;5.722;2023-01-24T03:04:25;100141.59;;;22.34;31.78
34197;BME280;36594;45.192;5.722;2023-01-24T03:07:13;100141.91;;;22.35;31.80
34197;BME280;36594;45.192;5.722;2023-01-24T03:10:04;100139.99;;;22.36;31.77
34197;BME280;36594;45.192;5.722;2023-01-24T03:12:53;100158.11;;;22.37;31.73
34197;BME280;36594;45.192;5.722;2023-01-24T03:16:02;100152.11;;;22.37;31.76
34197;BME280;36594;45.192;5.722;2023-01-24T03:19:09;100146.97;;;22.32;31.79
34197;BME280;36594;45.192;5.722;2023-01-24T03:22:15;100157.39;;;22.32;31.78
34197;BME280;36594;45.192;5.722;2023-01-24T03:25:22;100158.99;;;22.31;31.80
34197;BME280;36594;45.192;5.722;2023-01-24T03:28:28;100167.72;;;22.30;31.83
34197;BME280;36594;45.192;5.722;2023-01-24T03:31:34;100164.66;;;22.29;31.85
34197;BME280;36594;45.192;5.722;2023-01-24T03:34:42;100167.42;;;22.23;31.84
34197;BME280;36594;45.192;5.722;2023-01-24T03:37:36;100167.42;;;22.23;31.84
34197;BME280;36594;45.192;5.722;2023-01-24T03:40:45;100169.61;;;22.30;31.81
34197;BME280;36594;45.192;5.722;2023-01-24T03:43:34;100175.51;;;22.27;31.86
34197;BME280;36594;45.192;5.722;2023-01-24T03:46:22;100173.72;;;22.30;31.79
34197;BME280;36594;45.192;5.722;2023-01-24T03:49:11;100166.13;;;22.32;31.82
34197;BME280;36594;45.192;5.722;2023-01-24T03:52:00;100176.33;;;22.34;31.75
34197;BME280;36594;45.192;5.722;2023-01-24T03:55:09;100181.50;;;22.33;31.72
34197;BME280;36594;45.192;5.722;2023-01-24T03:57:57;100176.98;;;22.29;31.74
34197;BME280;36594;45.192;5.722;2023-01-24T04:00:47;100182.87;;;22.33;31.68
34197;BME280;36594;45.192;5.722;2023-01-24T04:03:40;100173.59;;;22.34;31.62
34197;BME280;36594;45.192;5.722;2023-01-24T04:06:28;100184.53;;;22.34;31.62
34197;BME280;36594;45.192;5.722;2023-01-24T04:09:17;100181.80;;;22.34;31.60
34197;BME280;36594;45.192;5.722;2023-01-24T04:12:07;100183.50;;;22.35;31.58
34197;BME280;36594;45.192;5.722;2023-01-24T04:14:56;100184.53;;;22.34;31.57
34197;BME280;36594;45.192;5.722;2023-01-24T04:17:45;100196.23;;;22.32;31.53
34197;BME280;36594;45.192;5.722;2023-01-24T04:20:35;100201.58;;;22.36;31.48
34197;BME280;36594;45.192;5.722;2023-01-24T04:23:25;100185.16;;;22.36;31.46
34197;BME280;36594;45.192;5.722;2023-01-24T04:26:13;100167.85;;;22.26;31.44
34197;BME280;36594;45.192;5.722;2023-01-24T04:29:01;100200.77;;;22.35;31.51
34197;BME280;36594;45.192;5.722;2023-01-24T04:31:50;100200.14;;;22.33;31.48
34197;BME280;36594;45.192;5.722;2023-01-24T04:34:50;100212.14;;;22.32;31.51
34197;BME280;36594;45.192;5.722;2023-01-24T04:37:40;100206.04;;;22.30;31.46
34197;BME280;36594;45.192;5.722;2023-01-24T04:40:30;100205.29;;;22.32;31.41
34197;BME280;36594;45.192;5.722;2023-01-24T04:43:18;100210.99;;;22.31;31.43
34197;BME280;36594;45.192;5.722;2023-01-24T04:46:09;100211.09;;;22.33;31.39
34197;BME280;36594;45.192;5.722;2023-01-24T04:49:02;100217.51;;;22.30;31.39
34197;BME280;36594;45.192;5.722;2023-01-24T04:51:58;100210.99;;;22.31;31.42
34197;BME280;36594;45.192;5.722;2023-01-24T04:54:48;100211.81;;;22.31;31.40
34197;BME280;36594;45.192;5.722;2023-01-24T04:57:38;100209.63;;;22.31;31.39
34197;BME280;36594;45.192;5.722;2023-01-24T05:00:26;100206.14;;;22.33;31.36
34197;BME280;36594;45.192;5.722;2023-01-24T05:03:16;100209.33;;;22.23;31.39
34197;BME280;36594;45.192;5.722;2023-01-24T05:06:05;100221.13;;;22.11;31.50
34197;BME280;36594;45.192;5.722;2023-01-24T05:08:55;100217.67;;;22.06;31.54
34197;BME280;36594;45.192;5.722;2023-01-24T05:11:45;100221.15;;;22.04;31.63
34197;BME280;36594;45.192;5.722;2023-01-24T05:14:34;100224.63;;;22.02;31.69
34197;BME280;36594;45.192;5.722;2023-01-24T05:17:23;100220.00;;;22.03;31.69
34197;BME280;36594;45.192;5.722;2023-01-24T05:20:13;100217.27;;;22.03;31.70
34197;BME280;36594;45.192;5.722;2023-01-24T05:23:01;100227.77;;;22.06;31.69
34197;BME280;36594;45.192;5.722;2023-01-24T05:25:51;100224.31;;;22.08;31.66
34197;BME280;36594;45.192;5.722;2023-01-24T05:28:40;100218.52;;;22.07;31.63
34197;BME280;36594;45.192;5.722;2023-01-24T05:31:28;100217.25;;;22.09;31.61
34197;BME280;36594;45.192;5.722;2023-01-24T05:34:18;100220.61;;;22.11;31.63
34197;BME280;36594;45.192;5.722;2023-01-24T05:37:07;100230.52;;;22.12;31.62
34197;BME280;36594;45.192;5.722;2023-01-24T05:39:57;100226.52;;;22.15;31.58
34197;BME280;36594;45.192;5.722;2023-01-24T05:42:47;100237.75;;;22.16;31.52
34197;BME280;36594;45.192;5.722;2023-01-24T05:45:36;100245.02;;;22.19;31.51
34197;BME280;36594;45.192;5.722;2023-01-24T05:48:24;100244.80;;;22.21;31.41
34197;BME280;36594;45.192;5.722;2023-01-24T05:51:16;100242.58;;;22.20;31.42
34197;BME280;36594;45.192;5.722;2023-01-24T05:54:05;100251.13;;;22.21;31.39
34197;BME280;36594;45.192;5.722;2023-01-24T05:57:04;100247.53;;;22.21;31.42
34197;BME280;36594;45.192;5.722;2023-01-24T05:59:54;100255.13;;;22.19;31.36
34197;BME280;36594;45.192;5.722;2023-01-24T06:02:42;100264.47;;;22.20;31.45
34197;BME280;36594;45.192;5.722;2023-01-24T06:05:31;100272.78;;;22.23;31.44
34197;BME280;36594;45.192;5.722;2023-01-24T06:08:21;100260.25;;;22.24;31.37
34197;BME280;36594;45.192;5.722;2023-01-24T06:11:18;100269.83;;;22.24;31.34
34197;BME280;36594;45.192;5.722;2023-01-24T06:14:01;100276.77;;;22.27;31.35
34197;BME280;36594;45.192;5.722;2023-01-24T06:16:50;100280.69;;;22.28;31.39
34197;BME280;36594;45.192;5.722;2023-01-24T06:19:40;100282.24;;;22.27;31.32
34197;BME280;36594;45.192;5.722;2023-01-24T06:22:34;100281.95;;;22.26;31.29
34197;BME280;36594;45.192;5.722;2023-01-24T06:25:23;100281.72;;;22.27;31.29
34197;BME280;36594;45.192;5.722;2023-01-24T06:28:12;100300.03;;;22.27;31.28
34197;BME280;36594;45.192;5.722;2023-01-24T06:31:20;100295.93;;;22.27;31.23
34197;BME280;36594;45.192;5.722;2023-01-24T06:37:37;100307.84;;;22.23;31.32
34197;BME280;36594;45.192;5.722;2023-01-24T06:40:26;100308.26;;;22.20;31.39
34197;BME280;36594;45.192;5.722;2023-01-24T06:43:16;100321.94;;;22.20;31.34
34197;BME280;36594;45.192;5.722;2023-01-24T06:46:04;100323.12;;;22.22;31.33
34197;BME280;36594;45.192;5.722;2023-01-24T06:48:52;100332.98;;;22.42;30.84
34197;BME280;36594;45.192;5.722;2023-01-24T06:51:41;100332.98;;;22.42;30.03
34197;BME280;36594;45.192;5.722;2023-01-24T06:54:29;100344.88;;;22.52;30.09
34197;BME280;36594;45.192;5.722;2023-01-24T06:57:17;100343.57;;;22.54;30.30
34197;BME280;36594;45.192;5.722;2023-01-24T07:00:06;100350.74;;;22.55;30.37
34197;BME280;36594;45.192;5.722;2023-01-24T07:02:59;100353.91;;;22.59;30.36
34197;BME280;36594;45.192;5.722;2023-01-24T07:05:48;100354.95;;;22.58;30.35
34197;BME280;36594;45.192;5.722;2023-01-24T07:08:37;100361.80;;;22.58;30.37
34197;BME280;36594;45.192;5.722;2023-01-24T07:11:25;100357.17;;;22.58;30.37
34197;BME280;36594;45.192;5.722;2023-01-24T07:14:13;100361.80;;;22.58;30.43
34197;BME280;36594;45.192;5.722;2023-01-24T07:17:02;100363.91;;;22.56;30.49
34197;BME280;36594;45.192;5.722;2023-01-24T07:19:52;100376.66;;;22.53;30.63
34197;BME280;36594;45.192;5.722;2023-01-24T07:22:42;100380.47;;;22.52;30.77
34197;BME280;36594;45.192;5.722;2023-01-24T07:25:31;100378.12;;;22.55;30.75
34197;BME280;36594;45.192;5.722;2023-01-24T07:28:22;100381.61;;;22.53;30.83
34197;BME280;36594;45.192;5.722;2023-01-24T07:31:12;100385.72;;;22.53;30.88
34197;BME280;36594;45.192;5.722;2023-01-24T07:34:02;100401.00;;;22.52;30.82
34197;BME280;36594;45.192;5.722;2023-01-24T07:36:50;100391.72;;;22.46;31.26
34197;BME280;36594;45.192;5.722;2023-01-24T07:39:38;100391.72;;;22.46;31.26
34197;BME280;36594;45.192;5.722;2023-01-24T07:42:27;100397.60;;;22.50;30.89
34197;BME280;36594;45.192;5.722;2023-01-24T07:45:16;100409.92;;;22.50;30.87
34197;BME280;36594;45.192;5.722;2023-01-24T07:48:06;100410.37;;;22.47;30.95
34197;BME280;36594;45.192;5.722;2023-01-24T07:50:59;100413.95;;;22.47;31.01
34197;BME280;36594;45.192;5.722;2023-01-24T07:53:48;100427.42;;;22.49;30.99
34197;BME280;36594;45.192;5.722;2023-01-24T07:56:36;100423.09;;;22.50;30.96
34197;BME280;36594;45.192;5.722;2023-01-24T07:59:25;100422.91;;;22.52;30.92
34197;BME280;36594;45.192;5.722;2023-01-24T08:02:13;100425.53;;;22.49;30.94
34197;BME280;36594;45.192;5.722;2023-01-24T08:05:01;100422.47;;;22.48;30.95
34197;BME280;36594;45.192;5.722;2023-01-24T08:07:50;100424.80;;;22.45;30.98
34197;BME280;36594;45.192;5.722;2023-01-24T08:10:39;100430.58;;;22.46;30.94
34197;BME280;36594;45.192;5.722;2023-01-24T08:13:27;100428.36;;;22.39;30.98
34197;BME280;36594;45.192;5.722;2023-01-24T08:16:16;100441.23;;;22.45;31.02
34197;BME280;36594;45.192;5.722;2023-01-24T08:19:04;100436.46;;;22.43;31.03
34197;BME280;36594;45.192;5.722;2023-01-24T08:21:53;100443.30;;;22.43;31.06
34197;BME280;36594;45.192;5.722;2023-01-24T08:24:41;100439.86;;;22.45;31.01
34197;BME280;36594;45.192;5.722;2023-01-24T08:27:29;100451.52;;;22.43;31.06
34197;BME280;36594;45.192;5.722;2023-01-24T08:30:18;100446.05;;;22.43;31.06
34197;BME280;36594;45.192;5.722;2023-01-24T08:33:08;100455.62;;;22.43;31.06
34197;BME280;36594;45.192;5.722;2023-01-24T08:35:59;100458.58;;;22.41;31.07
34197;BME280;36594;45.192;5.722;2023-01-24T08:38:47;100471.42;;;22.41;31.08
34197;BME280;36594;45.192;5.722;2023-01-24T08:41:35;100476.60;;;22.40;31.10
34197;BME280;36594;45.192;5.722;2023-01-24T08:44:23;100481.00;;;22.41;31.12
34197;BME280;36594;45.192;5.722;2023-01-24T08:47:11;100484.59;;;22.41;31.09
34197;BME280;36594;45.192;5.722;2023-01-24T08:50:00;100495.55;;;22.41;31.10
34197;BME280;36594;45.192;5.722;2023-01-24T08:52:48;100484.30;;;22.40;31.09
34197;BME280;36594;45.192;5.722;2023-01-24T08:55:37;100486.48;;;22.41;31.06
34197;BME280;36594;45.192;5.722;2023-01-24T08:58:26;100482.48;;;22.43;31.01
34197;BME280;36594;45.192;5.722;2023-01-24T09:01:14;100491.77;;;22.42;31.00
34197;BME280;36594;45.192;5.722;2023-01-24T09:04:03;100489.55;;;22.42;31.01
34197;BME280;36594;45.192;5.722;2023-01-24T09:06:52;100485.11;;;22.41;31.02
34197;BME280;36594;45.192;5.722;2023-01-24T09:09:41;100486.70;;;22.39;31.02
34197;BME280;36594;45.192;5.722;2023-01-24T09:12:29;100477.97;;;22.40;30.96
34197;BME280;36594;45.192;5.722;2023-01-24T09:15:19;100479.64;;;22.41;30.93
34197;BME280;36594;45.192;5.722;2023-01-24T09:18:07;100475.34;;;22.42;30.91
34197;BME280;36594;45.192;5.722;2023-01-24T09:21:01;100474.38;;;22.39;30.93
34197;BME280;36594;45.192;5.722;2023-01-24T09:23:50;100477.75;;;22.41;30.94
34197;BME280;36594;45.192;5.722;2023-01-24T09:26:40;100486.81;;;22.42;30.96
34197;BME280;36594;45.192;5.722;2023-01-24T09:29:29;100487.03;;;22.40;30.98
34197;BME280;36594;45.192;5.722;2023-01-24T09:32:18;100490.59;;;22.41;30.97
34197;BME280;36594;45.192;5.722;2023-01-24T09:35:07;100496.91;;;22.41;30.98
34197;BME280;36594;45.192;5.722;2023-01-24T09:37:55;100497.43;;;22.41;31.01
34197;BME280;36594;45.192;5.722;2023-01-24T09:40:50;100494.58;;;22.38;31.03
34197;BME280;36594;45.192;5.722;2023-01-24T09:43:46;100498.91;;;22.37;31.03
34197;BME280;36594;45.192;5.722;2023-01-24T09:46:48;100505.64;;;22.41;31.03
34197;BME280;36594;45.192;5.722;2023-01-24T09:49:38;100502.50;;;22.37;31.04
34197;BME280;36594;45.192;5.722;2023-01-24T09:52:35;100500.28;;;22.37;31.09
34197;BME280;36594;45.192;5.722;2023-01-24T09:55:32;100510.38;;;22.36;31.10
34197;BME280;36594;45.192;5.722;2023-01-24T09:58:27;100519.77;;;22.38;31.08
34197;BME280;36594;45.192;5.722;2023-01-24T10:01:19;100513.63;;;22.36;31.10
34197;BME280;36594;45.192;5.722;2023-01-24T10:04:18;100505.97;;;22.35;31.09
34197;BME280;36594;45.192;5.722;2023-01-24T10:10:38;100519.22;;;22.38;31.07
34197;BME280;36594;45.192;5.722;2023-01-24T10:13:29;100514.59;;;22.32;31.14
34197;BME280;36594;45.192;5.722;2023-01-24T10:19:48;100506.27;;;22.36;31.12
34197;BME280;36594;45.192;5.722;2023-01-24T10:31:33;100478.38;;;22.30;31.15
34197;BME280;36594;45.192;5.722;2023-01-24T10:34:36;100484.59;;;22.35;31.12
34197;BME280;36594;45.192;5.722;2023-01-24T10:37:30;100479.01;;;22.32;31.15
34197;BME280;36594;45.192;5.722;2023-01-24T10:40:18;100483.00;;;22.30;31.20
34197;BME280;36594;45.192;5.722;2023-01-24T10:43:07;100471.84;;;22.31;31.16
34197;BME280;36594;45.192;5.722;2023-01-24T10:48:49;100465.10;;;22.34;31.10
34197;BME280;36594;45.192;5.722;2023-01-24T10:51:39;100476.68;;;22.36;31.13
34197;BME280;36594;45.192;5.722;2023-01-24T10:54:27;100473.94;;;22.36;31.12
34197;BME280;36594;45.192;5.722;2023-01-24T11:03:18;100476.90;;;22.34;31.10
34197;BME280;36594;45.192;5.722;2023-01-24T11:06:31;100476.68;;;22.36;31.14
34197;BME280;36594;45.192;5.722;2023-01-24T11:09:16;100483.63;;;22.38;31.09
34197;BME280;36594;45.192;5.722;2023-01-24T11:12:08;100483.75;;;22.34;31.13
34197;BME280;36594;45.192;5.722;2023-01-24T11:14:57;100481.23;;;22.33;31.15
34197;BME280;36594;45.192;5.722;2023-01-24T11:17:46;100486.81;;;22.35;31.11
34197;BME280;36594;45.192;5.722;2023-01-24T11:20:35;100489.33;;;22.37;31.08
34197;BME280;36594;45.192;5.722;2023-01-24T11:23:24;100486.59;;;22.37;31.05
34197;BME280;36594;45.192;5.722;2023-01-24T11:29:17;100487.22;;;22.39;31.09
34197;BME280;36594;45.192;5.722;2023-01-24T11:35:35;100473.34;;;22.40;31.05
34197;BME280;36594;45.192;5.722;2023-01-24T11:38:31;100465.95;;;22.34;31.10
34197;BME280;36594;45.192;5.722;2023-01-24T11:41:24;100465.10;;;22.34;31.09
34197;BME280;36594;45.192;5.722;2023-01-24T11:47:24;100449.01;;;22.35;31.11
34197;BME280;36594;45.192;5.722;2023-01-24T11:50:22;100442.38;;;22.33;31.12
34197;BME280;36594;45.192;5.722;2023-01-24T12:09:36;100402.78;;;22.29;31.20
34197;BME280;36594;45.192;5.722;2023-01-24T12:11:52;100400.89;;;22.30;31.14
34197;BME280;36594;45.192;5.722;2023-01-24T12:20:57;100391.75;;;22.33;31.14
34197;BME280;36594;45.192;5.722;2023-01-24T12:26:54;100392.78;;;22.32;31.15
34197;BME280;36594;45.192;5.722;2023-01-24T12:29:43;100393.64;;;22.33;31.09
34197;BME280;36594;45.192;5.722;2023-01-24T12:32:47;100392.56;;;22.34;31.08
34197;BME280;36594;45.192;5.722;2023-01-24T12:35:38;100393.19;;;22.36;31.09
34197;BME280;36594;45.192;5.722;2023-01-24T12:41:33;100382.05;;;22.37;31.04
34197;BME280;36594;45.192;5.722;2023-01-24T12:44:38;100381.20;;;22.37;31.08
34197;BME280;36594;45.192;5.722;2023-01-24T12:47:36;100384.16;;;22.35;31.07
34197;BME280;36594;45.192;5.722;2023-01-24T12:53:29;100373.11;;;22.33;31.09
34197;BME280;36594;45.192;5.722;2023-01-24T12:56:30;100374.14;;;22.32;31.12
34197;BME280;36594;45.192;5.722;2023-01-24T12:59:13;100377.21;;;22.33;31.11
34197;BME280;36594;45.192;5.722;2023-01-24T13:05:38;100381.53;;;22.38;31.07
34197;BME280;36594;45.192;5.722;2023-01-24T13:11:26;100391.94;;;22.32;31.09
34197;BME280;36594;45.192;5.722;2023-01-24T13:14:37;100393.30;;;22.32;31.12
34197;BME280;36594;45.192;5.722;2023-01-24T13:17:52;100388.78;;;22.35;31.08
34197;BME280;36594;45.192;5.722;2023-01-24T13:21:06;100389.72;;;22.31;31.12
34197;BME280;36594;45.192;5.722;2023-01-24T13:24:10;100388.35;;;22.31;31.14
34197;BME280;36594;45.192;5.722;2023-01-24T13:27:11;100382.47;;;22.28;31.15
34197;BME280;36594;45.192;5.722;2023-01-24T13:33:15;100383.32;;;22.28;31.19
34197;BME280;36594;45.192;5.722;2023-01-24T13:36:02;100383.52;;;22.27;31.20
34197;BME280;36594;45.192;5.722;2023-01-24T13:38:50;100387.83;;;22.32;31.19
34197;BME280;36594;45.192;5.722;2023-01-24T13:41:39;100391.42;;;22.32;31.13
34197;BME280;36594;45.192;5.722;2023-01-24T13:44:30;100389.53;;;22.33;31.09
34197;BME280;36594;45.192;5.722;2023-01-24T13:47:22;100391.19;;;22.34;31.09
34197;BME280;36594;45.192;5.722;2023-01-24T13:50:17;100389.08;;;22.36;31.11
34197;BME280;36594;45.192;5.722;2023-01-24T13:53:08;100391.30;;;22.36;31.10
34197;BME280;36594;45.192;5.722;2023-01-24T13:56:01;100396.78;;;22.36;31.06
34197;BME280;36594;45.192;5.722;2023-01-24T13:58:52;100383.95;;;22.30;31.05
34197;BME280;36594;45.192;5.722;2023-01-24T14:01:45;100400.14;;;22.38;31.06
34197;BME280;36594;45.192;5.722;2023-01-24T14:04:43;100398.37;;;22.35;31.02
34197;BME280;36594;45.192;5.722;2023-01-24T14:07:40;100398.99;;;22.37;31.04
34197;BME280;36594;45.192;5.722;2023-01-24T14:19:35;100395.94;;;22.29;31.14
34197;BME280;36594;45.192;5.722;2023-01-24T14:22:31;100395.09;;;22.29;31.15
34197;BME280;36594;45.192;5.722;2023-01-24T14:25:54;100397.83;;;22.29;31.11
34197;BME280;36594;45.192;5.722;2023-01-24T14:28:18;100400.14;;;22.32;31.11
34197;BME280;36594;45.192;5.722;2023-01-24T14:31:24;100405.10;;;22.32;31.05
34197;BME280;36594;45.192;5.722;2023-01-24T14:34:25;100401.84;;;22.33;31.10
34197;BME280;36594;45.192;5.722;2023-01-24T14:37:16;100392.45;;;22.31;31.09
34197;BME280;36594;45.192;5.722;2023-01-24T14:40:27;100395.64;;;22.28;31.13
34197;BME280;36594;45.192;5.722;2023-01-24T14:43:20;100404.48;;;22.30;31.11
34197;BME280;36594;45.192;5.722;2023-01-24T14:46:21;100395.31;;;22.27;31.13
34197;BME280;36594;45.192;5.722;2023-01-24T14:49:14;100399.74;;;22.28;31.12
34197;BME280;36594;45.192;5.722;2023-01-24T14:52:14;100400.38;;;22.30;31.12
34197;BME280;36594;45.192;5.722;2023-01-24T14:54:55;100401.52;;;22.32;31.09
34197;BME280;36594;45.192;5.722;2023-01-24T14:57:44;100401.22;;;22.31;31.08
34197;BME280;36594;45.192;5.722;2023-01-24T15:00:32;100404.88;;;22.34;31.03
34197;BME280;36594;45.192;5.722;2023-01-24T15:03:24;100401.84;;;22.33;31.08
34197;BME280;36594;45.192;5.722;2023-01-24T15:06:18;100401.84;;;22.33;31.03
34197;BME280;36594;45.192;5.722;2023-01-24T15:09:11;100404.59;;;22.33;31.04
34197;BME280;36594;45.192;5.722;2023-01-24T15:12:22;100398.48;;;22.31;31.05
34197;BME280;36594;45.192;5.722;2023-01-24T15:14:54;100402.88;;;22.32;31.07
34197;BME280;36594;45.192;5.722;2023-01-24T15:17:45;100401.52;;;22.32;31.00
34197;BME280;36594;45.192;5.722;2023-01-24T15:20:35;100402.59;;;22.31;31.01
34197;BME280;36594;45.192;5.722;2023-01-24T15:23:25;100404.66;;;22.29;31.01
34197;BME280;36594;45.192;5.722;2023-01-24T15:26:31;100410.58;;;22.32;31.00
34197;BME280;36594;45.192;5.722;2023-01-24T15:32:37;100411.62;;;22.31;30.99
34197;BME280;36594;45.192;5.722;2023-01-24T15:38:26;100416.58;;;22.25;31.06
34197;BME280;36594;45.192;5.722;2023-01-24T15:41:21;100412.47;;;22.25;31.06
34197;BME280;36594;45.192;5.722;2023-01-24T15:44:11;100419.31;;;22.25;31.05
34197;BME280;36594;45.192;5.722;2023-01-24T15:47:00;100421.53;;;22.26;31.06
34197;BME280;36594;45.192;5.722;2023-01-24T15:50:21;100430.67;;;22.29;31.01
34197;BME280;36594;45.192;5.722;2023-01-24T15:53:28;100437.63;;;22.25;31.03
34197;BME280;36594;45.192;5.722;2023-01-24T15:56:19;100441.20;;;22.19;31.11
34197;BME280;36594;45.192;5.722;2023-01-24T15:59:16;100441.84;;;22.21;31.07
34197;BME280;36594;45.192;5.722;2023-01-24T16:02:09;100444.91;;;22.22;31.08
34197;BME280;36594;45.192;5.722;2023-01-24T16:04:56;100451.41;;;22.21;31.10
34197;BME280;36594;45.192;5.722;2023-01-24T16:07:45;100455.00;;;22.21;31.09
34197;BME280;36594;45.192;5.722;2023-01-24T16:10:34;100455.52;;;22.21;31.10
34197;BME280;36594;45.192;5.722;2023-01-24T16:13:35;100457.00;;;22.23;31.06
34197;BME280;36594;45.192;5.722;2023-01-24T16:16:23;100458.38;;;22.23;30.99
34197;BME280;36594;45.192;5.722;2023-01-24T16:19:14;100461.63;;;22.23;31.04
34197;BME280;36594;45.192;5.722;2023-01-24T16:22:03;100461.95;;;22.24;31.04
34197;BME280;36594;45.192;5.722;2023-01-24T16:24:51;100458.89;;;22.23;31.02
34197;BME280;36594;45.192;5.722;2023-01-24T16:27:41;100460.26;;;22.23;31.05
34197;BME280;36594;45.192;5.722;2023-01-24T16:30:29;100460.66;;;22.20;31.06
34197;BME280;36594;45.192;5.722;2023-01-24T16:33:19;100456.89;;;22.21;31.06
34197;BME280;36594;45.192;5.722;2023-01-24T16:36:16;100456.89;;;22.21;31.04
34197;BME280;36594;45.192;5.722;2023-01-24T16:38:59;100454.37;;;22.19;31.04